Time;durP1;ratioP1;P1;durP2;ratioP2;P2;SDS_P1;SDS_P2;PMS_P1;PMS_P2;Temp;Humidity;BMP_temperature;BMP_pressure;BME280_temperature;BME280_humidity;BME280_pressure;Samples;Min_cycle;Max_cycle;Signal;HPM_P1;HPM_P2
2024/01/21 00:05:16;;;;;;;;;;;-4.90;99.90;;;;;;20852935;28;19921;-75
2024/01/21 00:15:16;;;;;;;;;;;-5.00;99.90;;;;;;20854820;28;19976;-75
2024/01/21 00:25:17;;;;;;;;;;;-5.00;99.90;;;;;;20836231;28;19917;-74
2024/01/21 00:35:18;;;;;;;;;;;-5.10;99.90;;;;;;20848550;28;19918;-74
2024/01/21 00:45:18;;;;;;;;;;;-5.10;99.90;;;;;;20837222;28;19917;-74
2024/01/21 00:55:19;;;;;;;;;;;-4.90;99.90;;;;;;20853987;28;19913;-73
2024/01/21 01:05:20;;;;;;;;;;;-5.20;99.90;;;;;;20839523;28;19967;-73
2024/01/21 01:15:20;;;;;;;;;;;-5.30;99.90;;;;;;20848670;28;19913;-74
2024/01/21 01:25:29;;;;;;;;;;;-5.30;99.90;;;;;;20837217;28;19916;-74
2024/01/21 01:35:29;;;;;;;;;;;-5.10;99.90;;;;;;20878973;28;19924;-74
2024/01/21 01:45:30;;;;;;;;;;;-5.10;99.90;;;;;;20871600;28;20407;-73
2024/01/21 01:55:32;;;;;;;;;;;-5.20;99.90;;;;;;20848498;28;20205;-75
2024/01/21 02:05:34;;;;;;;;;;;-5.40;99.90;;;;;;20854068;28;19968;-75
2024/01/21 02:15:34;;;;;;;;;;;-5.40;99.90;;;;;;20852354;28;19917;-75
2024/01/21 02:25:35;;;;;;;;;;;-5.40;99.90;;;;;;20866445;28;19917;-75
2024/01/21 02:35:36;;;;;;;;;;;-5.50;99.90;;;;;;20868181;28;20008;-75
2024/01/21 02:45:37;;;;;;;;;;;-5.70;99.90;;;;;;20853162;28;20296;-73
2024/01/21 02:55:37;;;;;;;;;;;-5.60;99.90;;;;;;20858096;28;19920;-74
2024/01/21 03:05:38;;;;;;;;;;;-5.60;99.90;;;;;;20863820;28;20012;-74
2024/01/21 03:15:39;;;;;;;;;;;-5.60;99.90;;;;;;20869544;28;20016;-75
2024/01/21 03:25:39;;;;;;;;;;;-5.70;99.90;;;;;;20843712;28;19921;-74
2024/01/21 03:35:40;;;;;;;;;;;-5.60;99.90;;;;;;20831310;28;19917;-73
2024/01/21 03:45:41;;;;;;;;;;;-5.70;99.90;;;;;;20865310;28;19920;-74
2024/01/21 03:55:42;;;;;;;;;;;-5.60;99.90;;;;;;20860417;28;20348;-75
2024/01/21 04:05:42;;;;;;;;;;;-5.80;99.90;;;;;;20828595;28;19917;-74
2024/01/21 04:15:43;;;;;;;;;;;-5.70;99.90;;;;;;20848828;28;19917;-74
2024/01/21 04:25:44;;;;;;;;;;;-5.80;99.90;;;;;;20845157;28;19917;-74
2024/01/21 04:35:44;;;;;;;;;;;-5.90;99.90;;;;;;20834158;28;19960;-74
2024/01/21 04:45:45;;;;;;;;;;;-5.90;99.90;;;;;;20865953;28;19999;-72
2024/01/21 04:55:45;;;;;;;;;;;-5.90;99.90;;;;;;20845029;28;19913;-73
2024/01/21 05:05:47;;;;;;;;;;;-6.00;99.90;;;;;;20830164;28;19917;-74
2024/01/21 05:15:48;;;;;;;;;;;-6.00;99.90;;;;;;20839901;28;19913;-74
2024/01/21 05:25:52;;;;;;;;;;;-5.90;99.90;;;;;;20833887;28;19928;-74
2024/01/21 05:35:53;;;;;;;;;;;-5.90;99.90;;;;;;20830233;28;20345;-74
2024/01/21 05:45:54;;;;;;;;;;;-5.80;99.90;;;;;;20827310;28;19921;-73
2024/01/21 05:55:54;;;;;;;;;;;-5.80;99.90;;;;;;20806168;28;20007;-74
2024/01/21 06:05:56;;;;;;;;;;;-5.80;99.90;;;;;;20820267;28;20323;-74
2024/01/21 06:16:00;;;;;;;;;;;-5.90;99.90;;;;;;20826538;28;19924;-73
2024/01/21 06:26:00;;;;;;;;;;;-5.90;99.90;;;;;;20841246;28;19968;-73
2024/01/21 06:36:01;;;;;;;;;;;-5.90;99.90;;;;;;20849407;28;19925;-74
2024/01/21 06:46:02;;;;;;;;;;;-5.90;99.90;;;;;;20839667;28;19917;-74
2024/01/21 06:56:07;;;;;;;;;;;-5.90;99.90;;;;;;20841561;28;19920;-75
2024/01/21 07:06:08;;;;;;;;;;;-5.90;99.90;;;;;;20864162;28;19921;-75
2024/01/21 07:16:09;;;;;;;;;;;-5.80;99.90;;;;;;20880604;28;19912;-74
2024/01/21 07:26:10;;;;;;;;;;;-5.70;99.90;;;;;;20892222;28;19921;-73
2024/01/21 07:36:11;;;;;;;;;;;-5.40;99.90;;;;;;20891725;28;20303;-74
2024/01/21 07:46:12;;;;;;;;;;;-5.20;99.90;;;;;;20885606;28;19921;-75
2024/01/21 07:56:13;;;;;;;;;;;-5.20;99.90;;;;;;20890580;28;19948;-74
2024/01/21 08:06:14;;;;;;;;;;;-5.10;99.90;;;;;;20885427;28;20419;-74
2024/01/21 08:16:14;;;;;;;;;;;-5.10;99.90;;;;;;20882822;28;20392;-74
2024/01/21 08:26:15;;;;;;;;;;;-4.90;99.90;;;;;;20887674;28;19940;-73
2024/01/21 08:36:16;;;;;;;;;;;-4.60;99.90;;;;;;20888081;28;19995;-73
2024/01/21 08:46:18;;;;;;;;;;;-4.10;99.90;;;;;;20886276;28;19971;-74
2024/01/21 08:56:19;;;;;;;;;;;-3.70;99.90;;;;;;20880685;28;19913;-74
2024/01/21 09:06:19;;;;;;;;;;;-3.20;99.90;;;;;;20867075;28;19923;-73
2024/01/21 09:16:20;;;;;;;;;;;-2.70;99.90;;;;;;20886915;28;19972;-74
2024/01/21 09:26:21;;;;;;;;;;;-2.80;99.90;;;;;;20882476;28;19917;-75
2024/01/21 09:36:23;;;;;;;;;;;-2.20;99.90;;;;;;20875715;28;20050;-74
2024/01/21 09:46:24;;;;;;;;;;;-2.40;99.90;;;;;;20859333;28;19986;-73
2024/01/21 09:56:25;;;;;;;;;;;-2.00;99.90;;;;;;20886939;28;19940;-72
2024/01/21 10:06:25;;;;;;;;;;;-1.80;99.90;;;;;;20889252;28;19917;-75
2024/01/21 10:16:26;;;;;;;;;;;-1.80;99.90;;;;;;20905673;28;19920;-75
2024/01/21 10:26:27;;;;;;;;;;;-1.90;99.90;;;;;;20899247;28;19929;-73
2024/01/21 10:36:32;;;;;;;;;;;-1.30;99.90;;;;;;20892586;28;19917;-73
2024/01/21 10:46:34;;;;;;;;;;;-0.60;99.90;;;;;;20874705;28;19924;-73
2024/01/21 10:56:35;;;;;;;;;;;0.10;99.90;;;;;;20869378;28;20456;-73
2024/01/21 11:06:36;;;;;;;;;;;0.10;99.90;;;;;;20884776;28;19959;-75
2024/01/21 11:16:37;;;;;;;;;;;0.40;99.90;;;;;;20889844;28;20311;-74
2024/01/21 11:26:41;;;;;;;;;;;0.90;99.90;;;;;;20894190;28;19921;-76
2024/01/21 11:36:42;;;;;;;;;;;0.60;99.90;;;;;;20886827;28;20300;-76
2024/01/21 11:46:43;;;;;;;;;;;0.70;99.90;;;;;;20870530;28;19956;-76
2024/01/21 11:56:44;;;;;;;;;;;1.80;99.90;;;;;;20882589;28;19913;-76
2024/01/21 12:06:46;;;;;;;;;;;1.30;99.90;;;;;;20879337;28;19924;-76
2024/01/21 12:16:51;;;;;;;;;;;2.40;99.90;;;;;;20886590;28;19924;-77
2024/01/21 12:26:55;;;;;;;;;;;4.50;99.90;;;;;;20890435;28;20346;-77
2024/01/21 12:36:56;;;;;;;;;;;5.30;99.90;;;;;;20879319;28;20016;-79
2024/01/21 12:46:57;;;;;;;;;;;6.70;99.90;;;;;;20885482;28;19923;-79
2024/01/21 12:57:01;;;;;;;;;;;6.40;99.90;;;;;;20863954;28;19925;-77
2024/01/21 13:07:02;;;;;;;;;;;5.30;99.90;;;;;;20863741;28;19928;-78
2024/01/21 13:17:03;;;;;;;;;;;5.70;99.90;;;;;;20866086;28;19917;-78
2024/01/21 13:27:16;;;;;;;;;;;6.10;99.90;;;;;;20870710;28;19932;-78
2024/01/21 13:37:17;;;;;;;;;;;7.60;99.90;;;;;;20887303;28;19917;-78
2024/01/21 13:47:17;;;;;;;;;;;6.60;99.90;;;;;;20884436;28;20034;-77
2024/01/21 13:57:18;;;;;;;;;;;6.70;99.90;;;;;;20883855;28;19920;-77
2024/01/21 14:07:19;;;;;;;;;;;6.70;99.90;;;;;;20881566;28;19999;-78
2024/01/21 14:17:24;;;;;;;;;;;6.80;99.90;;;;;;20904003;28;20364;-78
2024/01/21 14:27:25;;;;;;;;;;;5.60;99.90;;;;;;20874847;28;20372;-78
2024/01/21 14:37:26;;;;;;;;;;;6.20;99.90;;;;;;20896294;28;20050;-78
2024/01/21 14:47:26;;;;;;;;;;;4.20;99.90;;;;;;20907918;28;19918;-77
2024/01/21 14:57:27;;;;;;;;;;;4.20;99.90;;;;;;20909768;28;19966;-73
2024/01/21 15:07:28;;;;;;;;;;;7.10;99.90;;;;;;20913856;28;19943;-71
2024/01/21 15:17:29;;;;;;;;;;;9.30;99.90;;;;;;20877023;28;19912;-71
2024/01/21 15:27:29;;;;;;;;;;;9.00;99.90;;;;;;20876095;28;19963;-79
2024/01/21 15:37:31;;;;;;;;;;;5.10;99.90;;;;;;20899269;28;19923;-80
2024/01/21 15:47:31;;;;;;;;;;;2.90;99.90;;;;;;20875533;28;20371;-78
2024/01/21 15:57:32;;;;;;;;;;;2.30;99.90;;;;;;20903381;28;19995;-78
2024/01/21 16:07:33;;;;;;;;;;;1.80;99.90;;;;;;20897232;28;19995;-78
2024/01/21 16:17:33;;;;;;;;;;;1.20;99.90;;;;;;20912893;28;19936;-77
2024/01/21 16:27:34;;;;;;;;;;;0.90;99.90;;;;;;20902022;28;19923;-78
2024/01/21 16:37:35;;;;;;;;;;;0.60;99.90;;;;;;20868985;28;19921;-78
2024/01/21 16:47:35;;;;;;;;;;;0.40;99.90;;;;;;20880110;28;19924;-77
2024/01/21 16:57:37;;;;;;;;;;;0.00;99.90;;;;;;20852152;28;19929;-77
2024/01/21 17:07:38;;;;;;;;;;;-0.10;99.90;;;;;;20841109;28;20621;-77
2024/01/21 17:17:42;;;;;;;;;;;0.00;99.90;;;;;;20877600;28;19913;-77
2024/01/21 17:27:43;;;;;;;;;;;-0.20;99.90;;;;;;20834026;28;19940;-77
2024/01/21 17:37:46;;;;;;;;;;;-0.20;99.90;;;;;;20848382;28;19917;-78
2024/01/21 17:47:47;;;;;;;;;;;-0.50;99.90;;;;;;20849160;28;19917;-77
2024/01/21 17:57:48;;;;;;;;;;;-0.40;99.90;;;;;;20856442;28;20315;-78
2024/01/21 18:07:49;;;;;;;;;;;-0.60;99.90;;;;;;20860768;28;19917;-78
2024/01/21 18:17:49;;;;;;;;;;;-0.90;99.90;;;;;;20853399;28;19960;-77
2024/01/21 18:27:51;;;;;;;;;;;-0.50;99.90;;;;;;20862897;28;19917;-77
2024/01/21 18:37:52;;;;;;;;;;;-0.60;99.90;;;;;;20852499;28;19964;-78
2024/01/21 18:47:52;;;;;;;;;;;-0.70;99.90;;;;;;20848179;28;19917;-77
2024/01/21 18:57:53;;;;;;;;;;;-0.80;99.90;;;;;;20854933;28;20382;-75
2024/01/21 19:07:54;;;;;;;;;;;-0.80;99.90;;;;;;20850007;28;20529;-77
2024/01/21 19:17:55;;;;;;;;;;;-1.10;99.90;;;;;;20851720;28;20058;-76
2024/01/21 19:27:55;;;;;;;;;;;-1.30;99.90;;;;;;20848554;28;19962;-75
2024/01/21 19:37:56;;;;;;;;;;;-1.40;99.90;;;;;;20848489;28;19939;-75
2024/01/21 19:47:57;;;;;;;;;;;-1.60;99.90;;;;;;20848928;28;19921;-76
2024/01/21 19:57:59;;;;;;;;;;;-1.60;99.90;;;;;;20866471;28;19971;-76
2024/01/21 20:08:00;;;;;;;;;;;-1.60;99.90;;;;;;20865042;28;19917;-75
2024/01/21 20:18:01;;;;;;;;;;;-1.80;99.90;;;;;;20863784;28;20315;-75
2024/01/21 20:28:02;;;;;;;;;;;-1.90;99.90;;;;;;20842296;28;19952;-75
2024/01/21 20:38:03;;;;;;;;;;;-1.90;99.90;;;;;;20850971;28;20304;-74
2024/01/21 20:48:04;;;;;;;;;;;-2.10;99.90;;;;;;20851513;28;19949;-74
2024/01/21 20:58:05;;;;;;;;;;;-2.40;99.90;;;;;;20838483;28;19944;-74
2024/01/21 21:08:06;;;;;;;;;;;-2.30;99.90;;;;;;20853272;28;19925;-75
2024/01/21 21:18:06;;;;;;;;;;;-2.10;99.90;;;;;;20841434;28;19913;-74
2024/01/21 21:28:07;;;;;;;;;;;-1.90;99.90;;;;;;20832059;28;20327;-75
2024/01/21 21:38:08;;;;;;;;;;;-1.90;99.90;;;;;;20827871;28;19952;-75
2024/01/21 21:48:08;;;;;;;;;;;-2.10;99.90;;;;;;20828957;28;19975;-73
2024/01/21 21:58:09;;;;;;;;;;;-2.20;99.90;;;;;;20857185;28;20137;-74
2024/01/21 22:08:10;;;;;;;;;;;-2.30;99.90;;;;;;20887023;28;19916;-75
2024/01/21 22:18:10;;;;;;;;;;;-2.60;99.90;;;;;;20919762;28;19919;-75
2024/01/21 22:28:11;;;;;;;;;;;-2.80;99.90;;;;;;20894586;28;19924;-76
2024/01/21 22:38:12;;;;;;;;;;;-2.90;99.90;;;;;;20901631;28;19917;-73
2024/01/21 22:48:13;;;;;;;;;;;-2.90;99.90;;;;;;20859313;28;19924;-74
2024/01/21 22:58:13;;;;;;;;;;;-3.00;99.90;;;;;;20872221;28;19921;-74
2024/01/21 23:08:14;;;;;;;;;;;-3.10;99.90;;;;;;20856089;28;19925;-74
2024/01/21 23:18:15;;;;;;;;;;;-2.90;99.90;;;;;;20848371;28;20392;-74
2024/01/21 23:28:16;;;;;;;;;;;-2.90;99.90;;;;;;20852039;28;19917;-74
2024/01/21 23:38:16;;;;;;;;;;;-2.90;99.90;;;;;;20847582;28;20384;-74
2024/01/21 23:48:17;;;;;;;;;;;-2.30;99.90;;;;;;20838865;28;20014;-75
2024/01/21 23:58:18;;;;;;;;;;;-2.30;99.90;;;;;;20843409;28;19921;-75
